Airfield :
LOGIN :

Register | Disclaimer

   EN    FR    IT 

 










Legend :    VFR   Marginal VFR   IFR   Intensive IFR   Very Intensive IFR
Visi :
Ceiling :
>= 8 km
>= 3000ft
5 to 8 km
1000 to 3000 ft
1500m to 5 km
500 to 1000 ft
800 to 1500m
200 to 500 ft
< 800m
< 200 ft
Symbols :   Thunderstorms  Fog  Heavy snow  Heavy precipitations  Wind > 20 kt
SIGMETs :     Misc.  Thunderstorms  Icing  Turbulence  Mountain Waves  Volcanic Ashes






- Airport Elevation : 124 ft
- IATA code : RNS


LFRN - Rennes

CURRENT METAR :
  • 290900Z AUTO 05012KT CAVOK 16/04 Q1018 NOSIG

EXPIRED METARs :
  • 290830Z AUTO 07014KT CAVOK 16/04 Q1018 NOSIG
  • 290800Z AUTO 08011KT 050V120 CAVOK 15/04 Q1019 NOSIG
  • 290730Z AUTO 07010KT 040V110 CAVOK 14/05 Q1019 NOSIG
  • 290700Z AUTO 08009KT CAVOK 13/06 Q1019 NOSIG
  • 290630Z AUTO 07008KT 030V100 CAVOK 12/05 Q1019 NOSIG

TAF TAF LFRN
Valid from the 29 at 06:00 until the 30 at 06:00 UTC


290500Z 2906/3006 06007KT CAVOK
BECMG 2908/2910 07010KT
BECMG 2912/2914 02010KT
PROB40
TEMPO 2913/2918 02015G25KT
BECMG 3000/3003 VRB05KT
ATIS : +33 2 99 67 72 50



MET'MAP, your aeronautical weather chart ! - Copyright ORBIFLY December 2007 - Disclaimer

ORBIFLY MET'MAP TEAM :

Programming & Development : Alexandra Zaïnal
Original concept : Baudouin d'Aumeries
Technical & hardware support : Manuel Goepfert
Assistance : Marc-Olivier Méhu

Contact : metmap@orbifly.com




SOURCES & CREDITS :

   NOAA